« Back
NWS Peachtree City, Ga » Text Product » AHN Terminal Aerodrome Forecast


Printer-friendly Version
Current Version              Previous Versions:   1  2  3  4  5  6  7  8  9  

Terminal Aerodrome Forecast

865
FTAK31 PAJN 031500 AAA
TAFAHN
TAF AMD
PAHN 031537Z 0316/0412 08008KT P6SM SCT012 BKN070
      TEMPO 0316/0318 BKN012
     FM032000 12008KT P6SM BKN050
     FM040300 10004KT P6SM SCT050
      AMD LTD TO CLD VIS AND WIND=



USA.gov is the U.S. government's official web portal to all federal, state and local government web resources and services.